Cookies

¿Aceptas nuestras cookies?

Aceptar
VAM | Vabird-VBD

Virtual Vabird! Aerolínea Virtual de habla hispana, desde 2011




 INFORMACIÓN METAR y TAF
METAR FOR WMKD
ADDS - METARS form results

(1256 UTC 03 December 2021)
Data provider http://aviationweather.gov/metar/data/
 
METAR text: WMKD 031200Z VRB01KT 9000 -RA FEW010 SCT024 25/24 Q1012 BECMG NSW
Conditions at: WMKD (KUANTAN (AFB) , MY) observed 1200 UTC 03 December 2021
Temperature: 25.0°C (77°F)
Dewpoint: 24.0°C (75°F) [RH = 94%]
Pressure (altimeter): 29.88 inches Hg (1012.0 mb)
Winds: variable direction winds at 1 MPH (1 knots; 0.5 m/s)
Visibility: 6 miles ( 9 km)
Ceiling: at least 12,000 feet AGL
Clouds: few clouds at 1000 feet AGL
scattered clouds at 2400 feet AGL
Weather: -RA  (light rain)

 MAPA DE AEROPUERTO

 INFORMACIÓN DE PISTA